createdAt,value
2022-11-16T00:01:07.601Z,51.67
2022-11-16T00:03:34.823Z,52.40
2022-11-16T00:06:03.800Z,54.95
2022-11-16T00:08:33.340Z,51.65
2022-11-16T00:11:14.807Z,54.42
2022-11-16T00:13:43.138Z,51.83
2022-11-16T00:16:17.623Z,44.28
2022-11-16T00:18:44.946Z,52.50
2022-11-16T00:21:11.731Z,51.28
2022-11-16T00:23:39.058Z,50.08
2022-11-16T00:26:07.015Z,56.10
2022-11-16T00:28:34.499Z,53.65
2022-11-16T00:31:03.956Z,51.85
2022-11-16T00:33:31.128Z,53.85
2022-11-16T00:35:57.978Z,48.95
2022-11-16T00:38:24.798Z,52.17
2022-11-16T00:40:51.555Z,48.95
2022-11-16T00:43:18.653Z,48.08
2022-11-16T00:45:45.391Z,48.13
2022-11-16T00:48:12.660Z,45.05
2022-11-16T00:50:39.726Z,43.25
2022-11-16T00:53:07.552Z,46.15
2022-11-16T00:55:34.426Z,44.47
2022-11-16T00:58:02.411Z,51.55
2022-11-16T01:00:29.289Z,54.25
2022-11-16T01:02:56.245Z,56.35
2022-11-16T01:05:24.533Z,46.70
2022-11-16T01:07:51.978Z,53.90
2022-11-16T01:10:21.407Z,52.83
2022-11-16T01:12:49.680Z,45.33
2022-11-16T01:15:17.750Z,51.60
2022-11-16T01:17:44.876Z,46.85
2022-11-16T01:20:17.549Z,49.20
2022-11-16T01:22:44.402Z,40.78
2022-11-16T01:25:12.311Z,44.47
2022-11-16T01:27:39.894Z,46.38
2022-11-16T01:30:13.046Z,46.17
2022-11-16T01:32:44.690Z,41.25
2022-11-16T01:35:16.455Z,46.83
2022-11-16T01:37:43.368Z,38.90
2022-11-16T01:40:11.517Z,45.85
2022-11-16T01:42:40.783Z,38.65
2022-11-16T01:45:20.144Z,44.33
2022-11-16T01:47:47.998Z,42.20
2022-11-16T01:50:19.001Z,40.55
2022-11-16T01:52:54.187Z,39.17
2022-11-16T01:55:23.064Z,38.72
2022-11-16T01:58:24.002Z,34.28
2022-11-16T02:00:57.386Z,34.78
2022-11-16T02:03:32.082Z,39.85
2022-11-16T02:06:07.340Z,37.25
2022-11-16T02:09:23.367Z,41.42
2022-11-16T02:12:26.541Z,33.75
2022-11-16T02:15:20.518Z,31.85
2022-11-16T02:20:50.911Z,30.20
2022-11-16T02:23:44.500Z,35.65
2022-11-16T02:26:43.572Z,32.55
2022-11-16T02:29:32.638Z,29.95
2022-11-16T02:32:02.425Z,30.45
2022-11-16T02:34:37.742Z,36.92
2022-11-16T02:39:33.186Z,33.90
2022-11-16T02:42:01.941Z,32.30
2022-11-16T02:44:39.284Z,33.65
2022-11-16T02:47:11.398Z,38.05
2022-11-16T02:49:43.932Z,41.03
2022-11-16T02:52:11.216Z,35.97
2022-11-16T02:54:38.371Z,30.13
2022-11-16T02:57:05.059Z,35.35
2022-11-16T02:59:43.470Z,40.35
2022-11-16T03:02:44.371Z,39.17
2022-11-16T03:05:33.933Z,43.47
2022-11-16T03:08:15.773Z,42.17
2022-11-16T03:11:04.756Z,40.50
2022-11-16T03:13:34.058Z,35.30
2022-11-16T03:16:05.796Z,40.10
2022-11-16T03:18:33.030Z,41.63
2022-11-16T03:21:16.620Z,40.88
2022-11-16T03:23:45.363Z,37.58
2022-11-16T03:26:14.090Z,34.95
2022-11-16T03:28:51.668Z,33.15
2022-11-16T03:31:29.241Z,35.90
2022-11-16T03:33:58.534Z,33.00
2022-11-16T03:36:30.158Z,32.90
2022-11-16T03:39:03.088Z,36.15
2022-11-16T03:41:33.702Z,37.25
2022-11-16T03:46:27.146Z,49.85
2022-11-16T03:48:58.874Z,47.85
2022-11-16T03:53:56.016Z,52.80
2022-11-16T03:56:23.304Z,63.03
2022-11-16T03:58:50.134Z,52.38
2022-11-16T04:01:17.817Z,71.20
2022-11-16T04:03:45.867Z,63.55
2022-11-16T04:06:31.328Z,65.95
2022-11-16T04:09:17.073Z,52.80
2022-11-16T04:12:02.527Z,53.72
2022-11-16T04:14:47.942Z,55.78
2022-11-16T04:17:37.749Z,57.72
2022-11-16T04:20:24.381Z,60.30
2022-11-16T04:23:13.989Z,56.33
2022-11-16T04:25:41.834Z,56.90
2022-11-16T04:28:16.786Z,59.08
2022-11-16T04:31:23.309Z,64.10
2022-11-16T04:34:20.110Z,61.90
2022-11-16T04:37:09.619Z,69.28
2022-11-16T04:39:36.457Z,59.40
2022-11-16T04:42:14.426Z,61.75
2022-11-16T04:45:01.081Z,56.38
2022-11-16T04:47:33.577Z,63.25
2022-11-16T04:50:00.365Z,56.65
2022-11-16T04:52:27.852Z,60.13
2022-11-16T04:54:55.893Z,63.38
2022-11-16T04:57:23.509Z,79.68
2022-11-16T04:59:50.669Z,71.63
2022-11-16T05:02:17.574Z,65.55
2022-11-16T05:04:49.668Z,67.40
2022-11-16T05:07:17.588Z,72.55
2022-11-16T05:09:47.762Z,62.42
2022-11-16T05:12:25.381Z,69.82
2022-11-16T05:14:57.763Z,63.15
2022-11-16T05:17:27.232Z,74.53
2022-11-16T05:22:55.151Z,69.25
2022-11-16T05:25:23.890Z,68.80
2022-11-16T05:27:50.673Z,76.22
2022-11-16T05:30:17.646Z,79.28
2022-11-16T05:32:44.650Z,71.25
2022-11-16T05:35:13.035Z,65.00
2022-11-16T05:37:40.043Z,68.90
2022-11-16T05:40:07.710Z,71.63
2022-11-16T05:42:41.932Z,70.97
2022-11-16T05:45:09.288Z,67.80
2022-11-16T05:47:36.192Z,75.57
2022-11-16T05:50:03.405Z,75.13
2022-11-16T05:52:35.469Z,63.05
2022-11-16T05:55:06.806Z,75.13
2022-11-16T05:57:39.970Z,73.20
2022-11-16T06:00:07.885Z,67.10
2022-11-16T06:02:41.819Z,67.00
2022-11-16T06:05:15.267Z,67.45
2022-11-16T06:07:42.298Z,61.58
2022-11-16T06:10:09.453Z,61.38
2022-11-16T06:12:36.411Z,62.22
2022-11-16T06:15:03.940Z,61.10
2022-11-16T06:17:33.868Z,63.83
2022-11-16T06:20:01.204Z,55.20
2022-11-16T06:22:28.003Z,61.67
2022-11-16T06:24:54.723Z,54.55
2022-11-16T06:27:21.665Z,55.03
2022-11-16T06:29:48.489Z,55.85
2022-11-16T06:32:15.279Z,58.08
2022-11-16T06:34:42.396Z,64.18
2022-11-16T06:37:09.531Z,55.90
2022-11-16T06:39:36.291Z,58.67
2022-11-16T06:42:03.071Z,63.03
2022-11-16T06:44:30.298Z,64.05
2022-11-16T06:47:01.005Z,59.15
2022-11-16T06:49:28.086Z,66.43
2022-11-16T06:51:58.809Z,64.82
2022-11-16T06:54:35.090Z,64.97
2022-11-16T06:57:02.638Z,58.30
2022-11-16T06:59:29.517Z,62.05
2022-11-16T07:01:56.413Z,69.20
2022-11-16T07:04:23.433Z,59.30
2022-11-16T07:06:54.771Z,62.88
2022-11-16T07:09:21.657Z,54.00
2022-11-16T07:11:48.391Z,65.72
2022-11-16T07:14:16.041Z,61.45
2022-11-16T07:16:43.585Z,70.82
2022-11-16T07:19:11.185Z,75.68
2022-11-16T07:21:38.863Z,61.42
2022-11-16T07:24:10.867Z,63.47
2022-11-16T07:26:37.683Z,71.90
2022-11-16T07:29:13.885Z,70.15
2022-11-16T07:31:45.500Z,68.18
2022-11-16T07:34:32.149Z,62.55
2022-11-16T07:37:08.073Z,63.90
2022-11-16T07:39:34.858Z,58.15
2022-11-16T07:42:03.541Z,62.40
2022-11-16T07:44:50.486Z,70.68
2022-11-16T07:47:17.235Z,73.25
2022-11-16T07:49:44.030Z,67.55
2022-11-16T07:52:16.715Z,64.53
2022-11-16T07:54:57.658Z,71.55
2022-11-16T07:57:26.691Z,69.25
2022-11-16T07:59:55.528Z,76.43
2022-11-16T08:02:22.570Z,72.22
2022-11-16T08:04:51.130Z,71.10
2022-11-16T08:07:22.190Z,70.43
2022-11-16T08:09:53.294Z,66.53
2022-11-16T08:12:21.285Z,64.57
2022-11-16T08:14:48.079Z,66.82
2022-11-16T08:17:15.164Z,62.05
2022-11-16T08:19:42.758Z,60.15
2022-11-16T08:22:13.149Z,57.90
2022-11-16T08:24:41.468Z,48.20
2022-11-16T08:27:09.122Z,45.03
2022-11-16T08:29:35.883Z,44.70
2022-11-16T08:32:04.889Z,43.92
2022-11-16T08:34:34.154Z,37.45
2022-11-16T08:37:00.961Z,39.30
2022-11-16T08:39:43.371Z,38.47
2022-11-16T08:42:10.144Z,42.05
2022-11-16T08:44:38.290Z,30.75
2022-11-16T08:47:10.287Z,43.17
2022-11-16T08:49:46.572Z,39.75
2022-11-16T08:52:16.382Z,43.83
2022-11-16T08:54:43.625Z,38.40
2022-11-16T08:57:11.180Z,38.67
2022-11-16T08:59:39.617Z,38.17
2022-11-16T09:02:10.789Z,41.70
2022-11-16T09:04:37.636Z,37.67
2022-11-16T09:07:04.713Z,35.45
2022-11-16T09:09:31.483Z,38.08
2022-11-16T09:11:58.222Z,32.70
2022-11-16T09:14:25.079Z,31.33
2022-11-16T09:16:52.323Z,30.85
2022-11-16T09:19:20.469Z,25.85
2022-11-16T09:21:47.203Z,28.25
2022-11-16T09:24:13.938Z,32.08
2022-11-16T09:26:40.665Z,37.58
2022-11-16T09:29:07.438Z,34.85
2022-11-16T09:31:34.914Z,34.55
2022-11-16T09:34:02.899Z,37.28
2022-11-16T09:36:30.103Z,34.92
2022-11-16T09:42:00.459Z,34.50
2022-11-16T09:44:37.843Z,32.55
2022-11-16T09:47:09.127Z,35.88
2022-11-16T09:49:42.510Z,32.30
2022-11-16T09:52:17.157Z,32.17
2022-11-16T09:54:45.423Z,35.10
2022-11-16T09:57:16.156Z,36.42
2022-11-16T09:59:52.037Z,34.97
2022-11-16T10:02:26.717Z,30.27
2022-11-16T10:05:21.963Z,30.40
2022-11-16T10:07:52.367Z,32.67
2022-11-16T10:10:28.646Z,33.35
2022-11-16T10:13:04.376Z,30.63
2022-11-16T10:15:50.602Z,28.13
2022-11-16T10:18:43.695Z,29.52
2022-11-16T10:22:08.624Z,33.85
2022-11-16T10:24:57.782Z,31.33
2022-11-16T10:27:37.910Z,37.42
2022-11-16T10:30:18.385Z,31.67
2022-11-16T10:33:13.091Z,34.25
2022-11-16T10:35:47.057Z,29.95
2022-11-16T10:38:17.047Z,34.10
2022-11-16T10:40:46.882Z,32.70
2022-11-16T10:43:14.641Z,39.30
2022-11-16T10:46:01.096Z,34.30
2022-11-16T10:48:42.623Z,31.42
2022-11-16T10:51:10.449Z,32.90
2022-11-16T10:53:42.495Z,39.35
2022-11-16T10:56:21.403Z,37.97
2022-11-16T10:59:05.735Z,38.28
2022-11-16T11:01:41.604Z,38.05
2022-11-16T11:04:28.932Z,30.55
2022-11-16T11:07:02.802Z,33.22
2022-11-16T11:09:33.121Z,31.45
2022-11-16T11:12:37.402Z,23.90
2022-11-16T11:15:25.927Z,23.92
2022-11-16T11:18:16.569Z,26.55
2022-11-16T11:20:45.391Z,27.50
2022-11-16T11:23:19.561Z,25.27
2022-11-16T11:25:54.668Z,23.73
2022-11-16T11:28:21.381Z,26.02
2022-11-16T11:31:00.506Z,23.95
2022-11-16T11:33:30.399Z,30.65
2022-11-16T11:36:06.324Z,20.42
2022-11-16T11:38:34.403Z,29.05
2022-11-16T11:43:29.754Z,25.40
2022-11-16T11:46:20.962Z,22.50
2022-11-16T11:48:52.084Z,28.65
2022-11-16T11:51:27.766Z,23.85
2022-11-16T11:53:56.687Z,27.85
2022-11-16T11:56:24.734Z,24.70
2022-11-16T12:04:42.973Z,25.83
2022-11-16T12:07:34.078Z,27.60
2022-11-16T12:10:21.725Z,30.40
2022-11-16T12:13:38.592Z,23.05
2022-11-16T12:16:08.260Z,24.02
2022-11-16T12:18:52.275Z,25.08
2022-11-16T12:21:31.976Z,28.10
2022-11-16T12:24:19.605Z,27.52
2022-11-16T12:27:13.954Z,23.95
2022-11-16T12:29:52.191Z,24.33
2022-11-16T12:32:29.166Z,28.25
2022-11-16T12:35:24.630Z,25.52
2022-11-16T12:38:03.972Z,22.98
2022-11-16T12:40:33.590Z,25.50
2022-11-16T12:43:14.551Z,26.17
2022-11-16T12:48:27.818Z,24.65
2022-11-16T12:50:58.999Z,27.30
2022-11-16T12:54:03.306Z,28.23
2022-11-16T12:56:49.255Z,30.17
2022-11-16T12:59:52.482Z,26.05
2022-11-16T13:02:31.357Z,25.67
2022-11-16T13:05:05.695Z,28.23
2022-11-16T13:07:39.803Z,25.30
2022-11-16T13:10:13.934Z,25.75
2022-11-16T13:12:42.611Z,23.25
2022-11-16T13:15:19.259Z,28.55
2022-11-16T13:18:00.523Z,27.13
2022-11-16T13:20:49.526Z,27.90
2022-11-16T13:23:31.976Z,25.60
2022-11-16T13:26:10.739Z,26.75
2022-11-16T13:28:57.518Z,27.95
2022-11-16T13:32:02.886Z,29.65
2022-11-16T13:34:33.083Z,26.00
2022-11-16T13:36:59.851Z,32.65
2022-11-16T13:39:57.559Z,25.17
2022-11-16T13:42:24.994Z,25.00
2022-11-16T13:44:52.227Z,29.33
2022-11-16T13:47:22.051Z,28.23
2022-11-16T13:49:57.484Z,29.50
2022-11-16T13:53:23.531Z,30.08
2022-11-16T13:55:34.375Z,30.30
2022-11-16T13:58:03.284Z,27.17
2022-11-16T14:00:35.395Z,27.58
2022-11-16T14:03:17.351Z,31.40
2022-11-16T14:05:45.413Z,28.90
2022-11-16T14:08:24.359Z,26.05
2022-11-16T14:10:51.049Z,27.88
2022-11-16T14:13:30.296Z,30.83
2022-11-16T14:16:15.148Z,30.15
2022-11-16T14:18:43.458Z,29.98
2022-11-16T14:21:19.229Z,25.17
2022-11-16T14:23:48.819Z,27.80
2022-11-16T14:26:46.418Z,23.60
2022-11-16T14:29:37.681Z,24.70
2022-11-16T14:32:17.927Z,24.30
2022-11-16T14:34:47.384Z,25.67
2022-11-16T14:37:35.309Z,27.08
2022-11-16T14:40:08.623Z,26.13
2022-11-16T14:43:09.408Z,24.88
2022-11-16T14:45:32.251Z,27.23
2022-11-16T14:48:20.159Z,23.00
2022-11-16T14:51:03.611Z,30.23
2022-11-16T14:53:31.014Z,27.00
2022-11-16T14:56:13.049Z,29.77
2022-11-16T14:58:40.057Z,26.90
2022-11-16T15:01:11.893Z,28.88
2022-11-16T15:03:52.511Z,39.50
2022-11-16T15:06:19.548Z,34.35
2022-11-16T15:08:54.493Z,33.03
2022-11-16T15:11:50.581Z,37.50
2022-11-16T15:14:20.591Z,35.28
2022-11-16T15:16:52.280Z,37.50
2022-11-16T15:19:19.530Z,40.92
2022-11-16T15:21:53.365Z,35.92
2022-11-16T15:24:30.987Z,33.75
2022-11-16T15:27:22.435Z,38.60
2022-11-16T15:29:49.399Z,32.17
2022-11-16T15:32:16.949Z,35.40
2022-11-16T15:34:48.092Z,36.28
2022-11-16T15:37:26.834Z,33.25
2022-11-16T15:39:54.272Z,34.63
2022-11-16T15:42:21.498Z,36.05
2022-11-16T15:44:48.319Z,28.52
2022-11-16T15:47:16.029Z,32.53
2022-11-16T15:49:44.110Z,32.30
2022-11-16T15:52:11.309Z,30.60
2022-11-16T15:54:57.023Z,29.25
2022-11-16T15:57:24.232Z,30.35
2022-11-16T15:59:56.794Z,28.73
2022-11-16T16:02:28.743Z,27.35
2022-11-16T16:04:55.554Z,25.67
2022-11-16T16:07:39.498Z,30.83
2022-11-16T16:10:13.823Z,26.55
2022-11-16T16:12:51.399Z,30.05
2022-11-16T16:15:21.510Z,29.58
2022-11-16T16:17:48.262Z,32.90
2022-11-16T16:20:29.227Z,26.08
2022-11-16T16:23:28.508Z,29.45
2022-11-16T16:25:55.213Z,31.00
2022-11-16T16:28:21.971Z,27.23
2022-11-16T16:30:51.418Z,33.65
2022-11-16T16:33:22.889Z,30.08
2022-11-16T16:35:52.503Z,38.45
2022-11-16T16:38:19.235Z,36.95
2022-11-16T16:40:46.011Z,38.53
2022-11-16T16:43:12.771Z,39.42
2022-11-16T16:45:43.116Z,39.47
2022-11-16T16:48:11.874Z,40.28
2022-11-16T16:50:38.921Z,39.63
2022-11-16T16:53:05.929Z,40.75
2022-11-16T16:55:37.492Z,45.33
2022-11-16T16:58:05.151Z,40.00
2022-11-16T17:00:32.075Z,41.13
2022-11-16T17:02:58.810Z,40.28
2022-11-16T17:05:26.670Z,39.45
2022-11-16T17:07:56.603Z,42.92
2022-11-16T17:10:23.395Z,40.30
2022-11-16T17:12:53.528Z,37.28
2022-11-16T17:15:20.517Z,45.78
2022-11-16T17:17:47.455Z,59.65
2022-11-16T17:20:14.759Z,43.97
2022-11-16T17:22:41.959Z,34.33
2022-11-16T17:25:09.722Z,35.47
2022-11-16T17:27:36.521Z,31.35
2022-11-16T17:30:04.405Z,30.95
2022-11-16T17:32:31.135Z,30.75
2022-11-16T17:34:57.902Z,28.95
2022-11-16T17:37:24.642Z,28.50
2022-11-16T17:39:51.391Z,36.95
2022-11-16T17:42:18.108Z,38.67
2022-11-16T17:44:44.843Z,35.00
2022-11-16T17:47:11.714Z,47.75
2022-11-16T17:49:38.552Z,53.97
2022-11-16T17:52:06.234Z,52.53
2022-11-16T17:54:33.102Z,52.10
2022-11-16T17:56:59.863Z,60.10
2022-11-16T17:59:29.434Z,69.53
2022-11-16T18:01:58.065Z,81.70
2022-11-16T18:04:25.331Z,68.85
2022-11-16T18:06:52.133Z,75.95
2022-11-16T18:09:19.041Z,80.50
2022-11-16T18:11:46.055Z,70.22
2022-11-16T18:14:12.883Z,69.95
2022-11-16T18:16:42.462Z,67.00
2022-11-16T18:19:11.920Z,71.10
2022-11-16T18:21:40.233Z,69.18
2022-11-16T18:24:07.463Z,70.25
2022-11-16T18:26:34.305Z,68.95
2022-11-16T18:29:01.084Z,51.80
2022-11-16T18:31:28.100Z,45.33
2022-11-16T18:33:54.820Z,37.50
2022-11-16T18:36:22.151Z,44.67
2022-11-16T18:38:49.116Z,41.63
2022-11-16T18:41:19.797Z,44.90
2022-11-16T18:43:50.304Z,46.03
2022-11-16T18:46:18.860Z,45.42
2022-11-16T18:48:46.743Z,43.42
2022-11-16T18:51:14.459Z,46.28
2022-11-16T18:53:41.184Z,42.22
2022-11-16T18:56:27.294Z,42.42
2022-11-16T18:58:54.025Z,40.97
2022-11-16T19:01:23.474Z,39.55
2022-11-16T19:03:51.567Z,34.75
2022-11-16T19:06:18.925Z,42.05
2022-11-16T19:08:51.815Z,31.42
2022-11-16T19:13:52.724Z,31.30
2022-11-16T19:16:19.479Z,41.40
2022-11-16T19:18:46.242Z,36.55
2022-11-16T19:21:14.933Z,36.17
2022-11-16T19:23:44.812Z,37.42
2022-11-16T19:26:13.387Z,36.13
2022-11-16T19:31:19.413Z,45.13
2022-11-16T19:33:46.574Z,38.60
2022-11-16T19:36:18.506Z,42.63
2022-11-16T19:38:48.149Z,48.00
2022-11-16T19:41:16.397Z,46.65
2022-11-16T19:43:43.239Z,46.17
2022-11-16T19:46:12.229Z,40.22
2022-11-16T19:48:39.247Z,41.63
2022-11-16T19:51:14.760Z,42.53
2022-11-16T19:53:41.599Z,43.97
2022-11-16T19:56:10.623Z,47.50
2022-11-16T19:58:38.610Z,48.28
2022-11-16T20:01:12.132Z,45.35
2022-11-16T20:03:40.369Z,45.33
2022-11-16T20:06:15.048Z,54.25
2022-11-16T20:08:43.373Z,46.33
2022-11-16T20:11:21.796Z,43.97
2022-11-16T20:13:49.494Z,50.13
2022-11-16T20:16:18.044Z,47.30
2022-11-16T20:21:23.585Z,48.17
2022-11-16T20:23:53.722Z,51.42
2022-11-16T20:26:21.183Z,49.75
2022-11-16T20:28:51.096Z,47.38
2022-11-16T20:31:19.883Z,52.35
2022-11-16T20:33:54.640Z,47.22
2022-11-16T20:36:25.282Z,46.85
2022-11-16T20:38:52.597Z,53.85
2022-11-16T20:41:25.182Z,44.83
2022-11-16T20:43:53.556Z,47.85
2022-11-16T20:46:21.936Z,52.45
2022-11-16T20:48:49.142Z,41.08
2022-11-16T20:51:18.342Z,50.78
2022-11-16T20:53:46.315Z,43.08
2022-11-16T20:56:14.217Z,44.00
2022-11-16T20:58:41.000Z,49.47
2022-11-16T21:01:11.175Z,40.90
2022-11-16T21:03:38.469Z,37.72
2022-11-16T21:06:08.732Z,43.28
2022-11-16T21:08:36.612Z,40.35
2022-11-16T21:11:10.012Z,43.03
2022-11-16T21:13:55.434Z,41.92
2022-11-16T21:16:22.334Z,48.25
2022-11-16T21:18:49.032Z,41.28
2022-11-16T21:21:15.755Z,36.80
2022-11-16T21:23:45.007Z,37.28
2022-11-16T21:26:14.091Z,34.03
2022-11-16T21:28:44.637Z,34.38
2022-11-16T21:31:25.420Z,31.75
2022-11-16T21:33:52.954Z,36.47
2022-11-16T21:36:21.700Z,30.33
2022-11-16T21:38:48.894Z,28.15
2022-11-16T21:41:17.272Z,33.60
2022-11-16T21:43:44.408Z,29.77
2022-11-16T21:46:12.197Z,27.52
2022-11-16T21:48:39.560Z,28.67
2022-11-16T21:51:08.626Z,33.22
2022-11-16T21:53:36.173Z,25.95
2022-11-16T21:56:04.054Z,27.88
2022-11-16T21:58:30.805Z,26.30
2022-11-16T22:00:59.490Z,30.75
2022-11-16T22:03:28.380Z,27.40
2022-11-16T22:06:15.808Z,29.13
2022-11-16T22:08:42.980Z,24.95
2022-11-16T22:11:10.337Z,29.35
2022-11-16T22:13:38.328Z,25.60
2022-11-16T22:16:13.127Z,26.73
2022-11-16T22:18:39.838Z,22.42
2022-11-16T22:21:07.006Z,24.65
2022-11-16T22:23:33.990Z,21.80
2022-11-16T22:26:08.786Z,24.88
2022-11-16T22:28:36.549Z,20.83
2022-11-16T22:31:04.334Z,25.77
2022-11-16T22:33:32.177Z,23.42
2022-11-16T22:35:59.592Z,26.75
2022-11-16T22:38:26.979Z,22.55
2022-11-16T22:40:55.780Z,22.67
2022-11-16T22:43:27.694Z,20.27
2022-11-16T22:45:58.990Z,20.90
2022-11-16T22:48:31.173Z,24.27
2022-11-16T22:51:02.599Z,23.27
2022-11-16T22:53:29.350Z,25.52
2022-11-16T22:55:56.052Z,22.30
2022-11-16T22:58:22.787Z,22.75
2022-11-16T23:00:49.617Z,24.35
2022-11-16T23:03:16.468Z,24.85
2022-11-16T23:05:43.245Z,23.10
2022-11-16T23:08:09.970Z,17.73
2022-11-16T23:10:56.677Z,24.73
2022-11-16T23:13:41.832Z,20.13
2022-11-16T23:16:08.719Z,17.38
2022-11-16T23:18:35.585Z,22.33
2022-11-16T23:21:40.700Z,19.02
2022-11-16T23:24:30.367Z,24.95
2022-11-16T23:27:16.364Z,23.48
2022-11-16T23:29:43.297Z,21.98
2022-11-16T23:32:10.236Z,20.63
2022-11-16T23:34:36.983Z,19.15
2022-11-16T23:37:07.761Z,19.20
2022-11-16T23:39:34.572Z,22.38
2022-11-16T23:42:19.884Z,22.48
2022-11-16T23:44:46.863Z,23.52
2022-11-16T23:47:13.693Z,20.67
2022-11-16T23:49:40.382Z,26.95
2022-11-16T23:52:07.487Z,22.58
2022-11-16T23:54:34.159Z,21.40
2022-11-16T23:57:00.920Z,22.67
2022-11-16T23:59:27.699Z,22.42
